createdAt,value
2022-10-06T00:00:31.516Z,1.15
2022-10-06T00:02:57.925Z,0.45
2022-10-06T00:05:24.451Z,2.53
2022-10-06T00:07:50.843Z,0.55
2022-10-06T00:10:17.727Z,1.40
2022-10-06T00:12:47.624Z,0.52
2022-10-06T00:15:16.607Z,0.65
2022-10-06T00:17:42.993Z,1.27
2022-10-06T00:20:10.817Z,0.50
2022-10-06T00:22:42.542Z,1.50
2022-10-06T00:25:11.931Z,0.95
2022-10-06T00:27:42.749Z,0.38
2022-10-06T00:30:12.116Z,0.80
2022-10-06T00:32:39.436Z,2.05
2022-10-06T00:35:07.827Z,1.40
2022-10-06T00:37:38.073Z,0.40
2022-10-06T00:40:09.637Z,0.60
2022-10-06T00:42:51.135Z,1.17
2022-10-06T00:45:20.815Z,1.70
2022-10-06T00:47:47.421Z,0.73
2022-10-06T00:50:14.994Z,0.45
2022-10-06T00:52:41.876Z,0.30
2022-10-06T00:55:11.179Z,0.65
2022-10-06T00:57:39.424Z,0.80
2022-10-06T01:00:07.071Z,0.70
2022-10-06T01:02:42.565Z,0.98
2022-10-06T01:05:15.890Z,0.88
2022-10-06T01:07:42.279Z,0.60
2022-10-06T01:10:09.276Z,0.50
2022-10-06T01:12:35.848Z,1.10
2022-10-06T01:15:02.422Z,0.80
2022-10-06T01:17:44.057Z,0.95
2022-10-06T01:20:12.612Z,1.05
2022-10-06T01:22:43.468Z,0.50
2022-10-06T01:25:13.264Z,0.43
2022-10-06T01:27:42.768Z,0.65
2022-10-06T01:30:13.430Z,0.77
2022-10-06T01:32:40.179Z,2.60
2022-10-06T01:35:08.060Z,0.65
2022-10-06T01:37:34.728Z,0.20
2022-10-06T01:40:01.203Z,0.35
2022-10-06T01:42:31.701Z,0.63
2022-10-06T01:44:58.186Z,0.38
2022-10-06T01:47:24.562Z,1.25
2022-10-06T01:49:51.004Z,2.83
2022-10-06T01:52:17.882Z,0.80
2022-10-06T01:54:44.243Z,0.68
2022-10-06T01:57:10.716Z,1.33
2022-10-06T01:59:37.343Z,2.25
2022-10-06T02:02:04.702Z,1.08
2022-10-06T02:04:31.231Z,0.40
2022-10-06T02:06:57.658Z,0.43
2022-10-06T02:09:24.090Z,0.60
2022-10-06T02:11:50.743Z,1.80
2022-10-06T02:14:18.069Z,0.17
2022-10-06T02:16:47.806Z,0.80
2022-10-06T02:19:14.195Z,0.70
2022-10-06T02:21:40.575Z,0.38
2022-10-06T02:24:06.979Z,1.10
2022-10-06T02:26:33.595Z,0.73
2022-10-06T02:28:59.983Z,1.77
2022-10-06T02:31:26.606Z,1.17
2022-10-06T02:33:53.056Z,0.77
2022-10-06T02:36:19.499Z,3.70
2022-10-06T02:38:45.911Z,1.55
2022-10-06T02:41:12.294Z,5.35
2022-10-06T02:43:38.743Z,1.65
2022-10-06T02:46:08.142Z,0.90
2022-10-06T02:48:35.145Z,0.50
2022-10-06T02:51:09.495Z,0.43
2022-10-06T02:53:36.552Z,0.35
2022-10-06T02:56:12.271Z,0.70
2022-10-06T02:58:39.912Z,0.45
2022-10-06T03:01:21.280Z,0.65
2022-10-06T03:03:48.117Z,2.20
2022-10-06T03:06:26.751Z,0.50
2022-10-06T03:08:54.252Z,0.93
2022-10-06T03:11:23.062Z,0.93
2022-10-06T03:13:51.410Z,0.63
2022-10-06T03:16:26.644Z,2.90
2022-10-06T03:18:54.943Z,0.50
2022-10-06T03:21:23.810Z,0.63
2022-10-06T03:23:51.833Z,0.85
2022-10-06T03:26:20.582Z,0.75
2022-10-06T03:28:47.212Z,0.90
2022-10-06T03:31:14.986Z,0.40
2022-10-06T03:33:41.718Z,0.88
2022-10-06T03:36:11.898Z,1.15
2022-10-06T03:38:38.691Z,0.57
2022-10-06T03:41:08.158Z,0.68
2022-10-06T03:43:35.141Z,1.75
2022-10-06T03:46:02.762Z,2.67
2022-10-06T03:48:31.473Z,0.43
2022-10-06T03:51:03.091Z,1.10
2022-10-06T03:53:30.286Z,1.42
2022-10-06T03:56:13.233Z,1.35
2022-10-06T03:58:41.998Z,1.58
2022-10-06T04:01:44.621Z,3.83
2022-10-06T04:04:12.155Z,1.52
2022-10-06T04:06:42.174Z,2.08
2022-10-06T04:09:14.909Z,1.02
2022-10-06T04:11:43.927Z,1.10
2022-10-06T04:14:13.743Z,0.85
2022-10-06T04:16:43.303Z,1.58
2022-10-06T04:19:12.523Z,2.22
2022-10-06T04:21:41.846Z,0.50
2022-10-06T04:24:10.638Z,1.25
2022-10-06T04:26:40.115Z,0.60
2022-10-06T04:29:06.806Z,2.40
2022-10-06T04:31:39.071Z,1.45
2022-10-06T04:34:06.859Z,3.33
2022-10-06T04:36:35.402Z,1.05
2022-10-06T04:39:04.238Z,1.00
2022-10-06T04:41:33.146Z,2.35
2022-10-06T04:44:00.784Z,1.88
2022-10-06T04:46:42.777Z,1.67
2022-10-06T04:49:18.537Z,6.90
2022-10-06T04:51:47.216Z,1.25
2022-10-06T04:54:14.263Z,1.50
2022-10-06T04:56:40.678Z,2.30
2022-10-06T04:59:07.055Z,2.15
2022-10-06T05:01:36.384Z,3.55
2022-10-06T05:04:04.215Z,3.67
2022-10-06T05:06:33.764Z,2.42
2022-10-06T05:09:03.662Z,6.78
2022-10-06T05:11:31.765Z,6.40
2022-10-06T05:13:58.958Z,6.55
2022-10-06T05:16:27.524Z,2.38
2022-10-06T05:18:54.125Z,3.53
2022-10-06T05:21:40.175Z,6.35
2022-10-06T05:24:07.046Z,3.35
2022-10-06T05:26:35.004Z,5.18
2022-10-06T05:29:02.500Z,10.00
2022-10-06T05:31:31.771Z,8.48
2022-10-06T05:33:59.577Z,10.10
2022-10-06T05:36:29.616Z,9.05
2022-10-06T05:38:57.343Z,12.25
2022-10-06T05:41:28.848Z,12.27
2022-10-06T05:43:55.279Z,14.85
2022-10-06T05:46:25.054Z,13.02
2022-10-06T05:48:56.693Z,9.68
2022-10-06T05:51:30.379Z,9.60
2022-10-06T05:53:58.175Z,11.13
2022-10-06T05:56:29.286Z,10.50
2022-10-06T05:58:57.513Z,13.60
2022-10-06T06:01:32.519Z,9.60
2022-10-06T06:04:04.410Z,13.48
2022-10-06T06:06:42.422Z,12.82
2022-10-06T06:09:17.312Z,13.65
2022-10-06T06:11:46.835Z,13.77
2022-10-06T06:14:16.096Z,9.50
2022-10-06T06:16:44.060Z,11.38
2022-10-06T06:19:12.705Z,14.85
2022-10-06T06:21:39.661Z,13.25
2022-10-06T06:24:06.555Z,11.95
2022-10-06T06:26:36.695Z,10.55
2022-10-06T06:29:04.313Z,10.90
2022-10-06T06:31:36.067Z,10.05
2022-10-06T06:34:04.789Z,13.45
2022-10-06T06:36:43.387Z,12.07
2022-10-06T06:39:11.490Z,8.82
2022-10-06T06:41:45.038Z,10.80
2022-10-06T06:44:12.096Z,8.57
2022-10-06T06:46:39.795Z,11.45
2022-10-06T06:49:06.887Z,11.05
2022-10-06T06:51:40.272Z,12.70
2022-10-06T06:54:08.254Z,8.40
2022-10-06T06:56:38.560Z,11.82
2022-10-06T06:59:11.743Z,12.10
2022-10-06T07:01:44.343Z,9.97
2022-10-06T07:04:12.811Z,10.45
2022-10-06T07:06:40.642Z,11.70
2022-10-06T07:09:08.002Z,9.38
2022-10-06T07:11:40.931Z,10.50
2022-10-06T07:14:10.050Z,7.97
2022-10-06T07:16:55.170Z,8.57
2022-10-06T07:19:57.354Z,8.57
2022-10-06T07:22:46.934Z,6.68
2022-10-06T07:25:26.468Z,9.55
2022-10-06T07:27:53.667Z,7.95
2022-10-06T07:30:26.385Z,7.05
2022-10-06T07:32:54.785Z,7.25
2022-10-06T07:35:22.613Z,10.77
2022-10-06T07:37:50.406Z,27.52
2022-10-06T07:40:17.522Z,5.55
2022-10-06T07:42:51.896Z,8.02
2022-10-06T07:45:37.153Z,7.57
2022-10-06T07:48:05.527Z,6.72
2022-10-06T07:50:32.639Z,7.78
2022-10-06T07:53:04.951Z,7.72
2022-10-06T07:55:31.902Z,11.82
2022-10-06T07:57:58.287Z,7.40
2022-10-06T08:00:26.611Z,9.02
2022-10-06T08:02:54.821Z,7.13
2022-10-06T08:05:21.772Z,8.10
2022-10-06T08:07:48.390Z,9.07
2022-10-06T08:10:14.986Z,5.50
2022-10-06T08:12:41.584Z,6.85
2022-10-06T08:15:11.273Z,8.27
2022-10-06T08:17:38.513Z,5.82
2022-10-06T08:20:07.400Z,5.93
2022-10-06T08:22:33.922Z,5.88
2022-10-06T08:25:07.697Z,5.20
2022-10-06T08:27:35.410Z,7.22
2022-10-06T08:30:02.839Z,5.30
2022-10-06T08:32:29.446Z,7.60
2022-10-06T08:34:56.316Z,7.25
2022-10-06T08:37:26.802Z,6.57
2022-10-06T08:39:54.608Z,4.35
2022-10-06T08:42:30.335Z,5.72
2022-10-06T08:45:00.381Z,7.75
2022-10-06T08:47:34.940Z,3.97
2022-10-06T08:50:04.994Z,7.47
2022-10-06T08:53:01.142Z,7.78
2022-10-06T08:55:50.111Z,5.55
2022-10-06T08:58:35.947Z,5.18
2022-10-06T09:01:41.585Z,4.97
2022-10-06T09:04:12.637Z,4.60
2022-10-06T09:07:06.676Z,5.28
2022-10-06T09:10:01.832Z,5.13
2022-10-06T09:13:02.531Z,5.45
2022-10-06T09:15:36.148Z,4.88
2022-10-06T09:18:13.322Z,3.90
2022-10-06T09:20:51.777Z,5.43
2022-10-06T09:23:38.503Z,6.05
2022-10-06T09:26:13.196Z,3.53
2022-10-06T09:28:39.734Z,4.47
2022-10-06T09:31:39.923Z,6.10
2022-10-06T09:34:38.032Z,6.22
2022-10-06T09:37:13.040Z,4.82
2022-10-06T09:39:49.352Z,2.92
2022-10-06T09:42:23.051Z,2.63
2022-10-06T09:45:16.891Z,3.22
2022-10-06T09:47:45.677Z,4.03
2022-10-06T09:50:27.581Z,3.35
2022-10-06T09:53:00.660Z,3.25
2022-10-06T09:55:33.748Z,5.43
2022-10-06T09:58:01.473Z,3.50
2022-10-06T10:00:38.443Z,5.22
2022-10-06T10:03:07.669Z,2.97
2022-10-06T10:05:37.872Z,2.25
2022-10-06T10:08:22.334Z,5.28
2022-10-06T10:10:50.875Z,3.92
2022-10-06T10:13:22.327Z,3.40
2022-10-06T10:15:58.287Z,5.03
2022-10-06T10:18:28.778Z,3.60
2022-10-06T10:21:05.162Z,3.47
2022-10-06T10:23:43.375Z,3.97
2022-10-06T10:26:32.460Z,4.97
2022-10-06T10:29:33.093Z,4.88
2022-10-06T10:32:24.555Z,3.25
2022-10-06T10:35:06.260Z,5.43
2022-10-06T10:37:46.454Z,7.82
2022-10-06T10:40:26.636Z,11.93
2022-10-06T10:43:08.075Z,7.25
2022-10-06T10:45:39.578Z,6.47
2022-10-06T10:48:19.245Z,10.02
2022-10-06T10:50:54.103Z,10.32
2022-10-06T10:53:34.764Z,8.55
2022-10-06T10:56:05.454Z,7.45
2022-10-06T10:58:43.781Z,10.75
2022-10-06T11:01:29.414Z,11.13
2022-10-06T11:03:57.996Z,6.72
2022-10-06T11:06:33.369Z,14.38
2022-10-06T11:08:59.750Z,6.68
2022-10-06T11:11:38.519Z,10.70
2022-10-06T11:14:16.012Z,9.75
2022-10-06T11:16:58.374Z,5.57
2022-10-06T11:19:56.054Z,6.40
2022-10-06T11:22:36.950Z,10.25
2022-10-06T11:25:22.447Z,10.40
2022-10-06T11:27:58.816Z,6.85
2022-10-06T11:30:26.565Z,9.90
2022-10-06T11:33:03.659Z,5.68
2022-10-06T11:35:35.546Z,9.40
2022-10-06T11:38:15.647Z,9.45
2022-10-06T11:40:42.218Z,5.22
2022-10-06T11:43:23.553Z,6.65
2022-10-06T11:46:11.227Z,7.10
2022-10-06T11:48:37.837Z,7.85
2022-10-06T11:51:23.196Z,8.38
2022-10-06T11:53:50.087Z,11.75
2022-10-06T11:56:23.478Z,7.88
2022-10-06T11:58:55.929Z,9.95
2022-10-06T12:01:31.543Z,7.45
2022-10-06T12:04:10.291Z,6.78
2022-10-06T12:06:42.676Z,9.38
2022-10-06T12:09:28.721Z,5.78
2022-10-06T12:11:57.394Z,6.05
2022-10-06T12:17:32.473Z,9.23
2022-10-06T12:20:17.378Z,5.47
2022-10-06T12:22:43.698Z,7.72
2022-10-06T12:25:39.428Z,3.10
2022-10-06T12:28:27.472Z,5.13
2022-10-06T12:31:17.325Z,6.35
2022-10-06T12:33:45.224Z,6.88
2022-10-06T12:36:20.358Z,7.70
2022-10-06T12:39:02.432Z,4.82
2022-10-06T12:41:58.428Z,6.18
2022-10-06T12:44:34.051Z,7.70
2022-10-06T12:47:05.402Z,5.38
2022-10-06T12:49:53.729Z,6.60
2022-10-06T12:52:44.804Z,5.97
2022-10-06T12:55:51.607Z,5.97
2022-10-06T12:58:28.536Z,4.70
2022-10-06T13:01:02.462Z,4.35
2022-10-06T13:03:29.487Z,5.75
2022-10-06T13:06:03.159Z,5.63
2022-10-06T13:08:35.006Z,8.15
2022-10-06T13:11:20.947Z,3.50
2022-10-06T13:13:53.066Z,5.25
2022-10-06T13:16:23.122Z,3.50
2022-10-06T13:18:54.967Z,7.32
2022-10-06T13:21:21.514Z,5.88
2022-10-06T13:23:48.662Z,6.00
2022-10-06T13:26:30.910Z,6.53
2022-10-06T13:28:59.254Z,4.50
2022-10-06T13:31:36.610Z,7.55
2022-10-06T13:34:10.387Z,4.75
2022-10-06T13:36:40.375Z,7.85
2022-10-06T13:39:14.025Z,5.47
2022-10-06T13:42:02.422Z,5.47
2022-10-06T13:44:35.050Z,4.82
2022-10-06T13:47:07.913Z,7.25
2022-10-06T13:49:47.356Z,6.50
2022-10-06T13:52:27.598Z,6.70
2022-10-06T13:54:57.121Z,5.72
2022-10-06T13:57:40.183Z,4.57
2022-10-06T14:00:26.978Z,3.50
2022-10-06T14:03:09.384Z,4.55
2022-10-06T14:05:41.883Z,3.10
2022-10-06T14:08:10.967Z,5.05
2022-10-06T14:10:40.397Z,4.63
2022-10-06T14:13:10.069Z,3.55
2022-10-06T14:15:46.657Z,6.65
2022-10-06T14:18:26.902Z,4.18
2022-10-06T14:20:56.484Z,5.32
2022-10-06T14:23:48.116Z,4.97
2022-10-06T14:26:16.319Z,3.63
2022-10-06T14:28:48.863Z,2.53
2022-10-06T14:31:15.817Z,3.30
2022-10-06T14:33:42.458Z,4.85
2022-10-06T14:36:29.259Z,5.13
2022-10-06T14:38:57.268Z,3.88
2022-10-06T14:41:27.647Z,2.78
2022-10-06T14:43:55.402Z,4.80
2022-10-06T14:46:22.990Z,3.15
2022-10-06T14:48:49.576Z,4.18
2022-10-06T14:51:16.784Z,3.95
2022-10-06T14:53:43.284Z,3.08
2022-10-06T14:56:13.728Z,4.78
2022-10-06T14:58:43.702Z,2.67
2022-10-06T15:01:17.115Z,3.90
2022-10-06T15:03:50.877Z,3.45
2022-10-06T15:06:36.012Z,3.45
2022-10-06T15:09:02.446Z,2.42
2022-10-06T15:11:29.384Z,4.38
2022-10-06T15:13:57.223Z,2.72
2022-10-06T15:16:24.491Z,4.45
2022-10-06T15:18:51.554Z,5.03
2022-10-06T15:21:19.266Z,4.07
2022-10-06T15:23:48.003Z,3.15
2022-10-06T15:26:33.566Z,2.92
2022-10-06T15:29:05.677Z,3.08
2022-10-06T15:31:34.637Z,3.80
2022-10-06T15:34:03.487Z,5.28
2022-10-06T15:36:36.215Z,2.53
2022-10-06T15:39:12.007Z,3.55
2022-10-06T15:41:40.771Z,4.15
2022-10-06T15:44:08.519Z,5.90
2022-10-06T15:46:38.587Z,9.07
2022-10-06T15:49:06.261Z,5.65
2022-10-06T15:51:38.251Z,5.05
2022-10-06T15:54:05.440Z,5.82
2022-10-06T15:56:32.397Z,4.15
2022-10-06T15:58:59.458Z,7.45
2022-10-06T16:01:32.491Z,5.93
2022-10-06T16:04:02.220Z,4.35
2022-10-06T16:06:48.962Z,4.20
2022-10-06T16:09:18.754Z,3.92
2022-10-06T16:11:49.110Z,3.25
2022-10-06T16:14:16.359Z,6.63
2022-10-06T16:16:44.409Z,4.78
2022-10-06T16:19:11.170Z,4.20
2022-10-06T16:21:38.111Z,3.10
2022-10-06T16:24:04.660Z,4.68
2022-10-06T16:26:31.178Z,6.40
2022-10-06T16:28:57.652Z,5.13
2022-10-06T16:31:24.892Z,6.32
2022-10-06T16:33:51.426Z,3.92
2022-10-06T16:36:18.494Z,4.50
2022-10-06T16:38:45.577Z,7.07
2022-10-06T16:41:12.030Z,5.60
2022-10-06T16:43:40.812Z,6.35
2022-10-06T16:46:16.682Z,3.45
2022-10-06T16:48:45.533Z,3.53
2022-10-06T16:51:18.116Z,11.35
2022-10-06T16:53:47.183Z,4.78
2022-10-06T16:56:25.046Z,3.70
2022-10-06T16:58:56.114Z,5.20
2022-10-06T17:01:28.235Z,3.35
2022-10-06T17:04:08.998Z,3.88
2022-10-06T17:06:39.142Z,4.65
2022-10-06T17:09:11.840Z,7.00
2022-10-06T17:11:38.441Z,3.33
2022-10-06T17:14:05.317Z,3.78
2022-10-06T17:16:35.507Z,3.58
2022-10-06T17:19:03.334Z,5.38
2022-10-06T17:21:45.604Z,4.18
2022-10-06T17:24:13.221Z,4.35
2022-10-06T17:26:41.802Z,3.30
2022-10-06T17:29:13.698Z,2.40
2022-10-06T17:31:42.238Z,4.57
2022-10-06T17:34:12.386Z,3.80
2022-10-06T17:36:40.553Z,5.20
2022-10-06T17:39:08.936Z,3.08
2022-10-06T17:41:38.146Z,3.03
2022-10-06T17:44:07.773Z,4.38
2022-10-06T17:46:38.883Z,3.67
2022-10-06T17:49:07.756Z,5.65
2022-10-06T17:51:36.230Z,9.82
2022-10-06T17:54:07.367Z,2.85
2022-10-06T17:56:37.159Z,6.65
2022-10-06T17:59:07.371Z,2.95
2022-10-06T18:01:35.680Z,7.38
2022-10-06T18:04:04.466Z,8.93
2022-10-06T18:06:33.673Z,3.85
2022-10-06T18:09:02.301Z,4.90
2022-10-06T18:11:33.605Z,5.68
2022-10-06T18:14:02.193Z,4.70
2022-10-06T18:16:31.402Z,2.17
2022-10-06T18:19:02.816Z,3.38
2022-10-06T18:21:35.172Z,2.70
2022-10-06T18:24:01.672Z,3.67
2022-10-06T18:26:28.066Z,2.58
2022-10-06T18:28:54.504Z,4.25
2022-10-06T18:31:20.931Z,3.47
2022-10-06T18:36:34.939Z,3.00
2022-10-06T18:39:01.392Z,2.90
2022-10-06T18:41:28.750Z,2.70
2022-10-06T18:43:55.587Z,5.13
2022-10-06T18:46:53.940Z,3.20
2022-10-06T18:49:22.814Z,3.50
2022-10-06T18:51:58.133Z,2.33
2022-10-06T18:54:27.583Z,2.55
2022-10-06T18:56:54.878Z,2.50
2022-10-06T18:59:31.303Z,2.70
2022-10-06T19:02:00.346Z,5.80
2022-10-06T19:04:26.850Z,2.25
2022-10-06T19:06:54.838Z,3.67
2022-10-06T19:09:23.494Z,3.05
2022-10-06T19:11:55.942Z,4.63
2022-10-06T19:14:26.423Z,6.45
2022-10-06T19:16:56.579Z,2.42
2022-10-06T19:19:23.376Z,2.55
2022-10-06T19:21:57.062Z,3.50
2022-10-06T19:24:23.425Z,3.92
2022-10-06T19:26:51.523Z,2.80
2022-10-06T19:29:24.271Z,2.30
2022-10-06T19:31:52.963Z,3.75
2022-10-06T19:34:20.567Z,1.67
2022-10-06T19:36:53.660Z,2.45
2022-10-06T19:39:25.858Z,4.35
2022-10-06T19:42:11.108Z,1.40
2022-10-06T19:44:42.804Z,2.47
2022-10-06T19:47:12.587Z,2.60
2022-10-06T19:49:39.035Z,6.32
2022-10-06T19:52:08.037Z,2.55
2022-10-06T19:54:35.731Z,2.35
2022-10-06T19:57:05.494Z,2.45
2022-10-06T19:59:32.940Z,4.07
2022-10-06T20:01:59.381Z,4.10
2022-10-06T20:04:25.929Z,2.65
2022-10-06T20:06:52.611Z,3.25
2022-10-06T20:09:21.393Z,2.30
2022-10-06T20:11:50.215Z,1.60
2022-10-06T20:14:22.143Z,1.83
2022-10-06T20:16:51.009Z,1.80
2022-10-06T20:19:18.764Z,1.90
2022-10-06T20:21:47.300Z,2.55
2022-10-06T20:24:18.534Z,3.97
2022-10-06T20:26:47.030Z,2.70
2022-10-06T20:29:15.800Z,2.75
2022-10-06T20:31:45.067Z,2.08
2022-10-06T20:34:14.906Z,4.00
2022-10-06T20:36:41.927Z,3.38
2022-10-06T20:39:30.253Z,3.70
2022-10-06T20:41:56.689Z,4.13
2022-10-06T20:44:23.121Z,2.30
2022-10-06T20:46:51.288Z,5.85
2022-10-06T20:49:18.062Z,2.60
2022-10-06T20:51:49.917Z,2.30
2022-10-06T20:54:20.563Z,1.95
2022-10-06T20:56:53.479Z,4.78
2022-10-06T20:59:24.631Z,2.90
2022-10-06T21:01:51.797Z,4.00
2022-10-06T21:04:19.589Z,3.63
2022-10-06T21:06:47.222Z,2.03
2022-10-06T21:09:19.432Z,2.25
2022-10-06T21:11:47.302Z,2.33
2022-10-06T21:14:14.789Z,3.72
2022-10-06T21:16:46.585Z,2.85
2022-10-06T21:19:15.419Z,2.47
2022-10-06T21:21:43.307Z,2.80
2022-10-06T21:24:10.138Z,2.42
2022-10-06T21:26:38.624Z,1.55
2022-10-06T21:29:05.290Z,2.13
2022-10-06T21:31:32.162Z,3.63
2022-10-06T21:33:59.218Z,2.33
2022-10-06T21:36:32.049Z,2.03
2022-10-06T21:39:01.018Z,4.38
2022-10-06T21:41:30.070Z,2.08
2022-10-06T21:44:10.509Z,2.90
2022-10-06T21:46:57.361Z,3.78
2022-10-06T21:49:25.125Z,3.53
2022-10-06T21:51:54.053Z,5.13
2022-10-06T21:54:22.129Z,3.22
2022-10-06T21:56:49.556Z,2.33
2022-10-06T21:59:16.406Z,3.03
2022-10-06T22:01:45.299Z,2.47
2022-10-06T22:04:14.148Z,1.52
2022-10-06T22:06:40.939Z,3.22
2022-10-06T22:09:09.520Z,2.58
2022-10-06T22:11:38.647Z,3.53
2022-10-06T22:14:08.624Z,1.60
2022-10-06T22:16:36.576Z,3.00
2022-10-06T22:19:05.031Z,4.63
2022-10-06T22:21:36.650Z,2.58
2022-10-06T22:24:08.773Z,3.95
2022-10-06T22:26:37.519Z,2.00
2022-10-06T22:29:06.504Z,1.80
2022-10-06T22:31:38.646Z,3.65
2022-10-06T22:34:05.400Z,2.30
2022-10-06T22:36:33.647Z,5.18
2022-10-06T22:39:00.731Z,2.97
2022-10-06T22:41:27.934Z,2.15
2022-10-06T22:43:57.570Z,2.97
2022-10-06T22:46:25.952Z,4.13
2022-10-06T22:48:52.613Z,4.32
2022-10-06T22:51:19.055Z,2.35
2022-10-06T22:53:45.513Z,2.58
2022-10-06T22:56:12.289Z,1.80
2022-10-06T22:58:41.500Z,7.32
2022-10-06T23:01:12.708Z,1.80
2022-10-06T23:03:40.473Z,6.22
2022-10-06T23:06:08.539Z,3.17
2022-10-06T23:08:35.528Z,2.17
2022-10-06T23:11:17.090Z,2.85
2022-10-06T23:13:46.901Z,2.63
2022-10-06T23:16:15.876Z,3.08
2022-10-06T23:18:44.184Z,4.43
2022-10-06T23:21:21.530Z,4.00
2022-10-06T23:23:50.725Z,2.67
2022-10-06T23:26:18.924Z,0.90
2022-10-06T23:28:46.904Z,2.42
2022-10-06T23:31:13.425Z,3.88
2022-10-06T23:33:39.956Z,2.42
2022-10-06T23:36:09.943Z,2.75
2022-10-06T23:38:38.888Z,2.00
2022-10-06T23:41:06.668Z,1.80
2022-10-06T23:43:33.291Z,3.13
2022-10-06T23:46:02.552Z,2.75
2022-10-06T23:48:29.304Z,1.90
2022-10-06T23:50:56.903Z,4.72
2022-10-06T23:53:23.383Z,2.05
2022-10-06T23:55:49.850Z,1.33
2022-10-06T23:58:16.632Z,2.53
